sensor_id;sensor_type;location;lat;lon;timestamp;temperature;humidity
20560;DHT22;10438;51.454;6.718;2023-05-14T00:00:40;13.60;99.90
20560;DHT22;10438;51.454;6.718;2023-05-14T00:03:05;13.60;99.90
20560;DHT22;10438;51.454;6.718;2023-05-14T00:05:31;13.50;99.90
20560;DHT22;10438;51.454;6.718;2023-05-14T00:07:57;13.50;99.90
20560;DHT22;10438;51.454;6.718;2023-05-14T00:10:22;13.50;99.90
20560;DHT22;10438;51.454;6.718;2023-05-14T00:12:49;13.50;99.90
20560;DHT22;10438;51.454;6.718;2023-05-14T00:15:15;13.40;99.90
20560;DHT22;10438;51.454;6.718;2023-05-14T00:17:40;13.40;99.90
20560;DHT22;10438;51.454;6.718;2023-05-14T00:20:07;13.40;99.90
20560;DHT22;10438;51.454;6.718;2023-05-14T00:22:33;13.40;99.90
20560;DHT22;10438;51.454;6.718;2023-05-14T00:24:58;13.40;99.90
20560;DHT22;10438;51.454;6.718;2023-05-14T00:27:24;13.40;99.90
20560;DHT22;10438;51.454;6.718;2023-05-14T00:29:50;13.40;99.90
20560;DHT22;10438;51.454;6.718;2023-05-14T00:32:15;13.30;99.90
20560;DHT22;10438;51.454;6.718;2023-05-14T00:34:41;13.30;99.90
20560;DHT22;10438;51.454;6.718;2023-05-14T00:37:06;13.30;99.90
20560;DHT22;10438;51.454;6.718;2023-05-14T00:39:33;13.20;99.90
20560;DHT22;10438;51.454;6.718;2023-05-14T00:41:58;13.20;99.90
20560;DHT22;10438;51.454;6.718;2023-05-14T00:44:24;13.10;99.90
20560;DHT22;10438;51.454;6.718;2023-05-14T00:46:49;13.10;99.90
20560;DHT22;10438;51.454;6.718;2023-05-14T00:49:15;13.00;99.90
20560;DHT22;10438;51.454;6.718;2023-05-14T00:51:42;12.90;99.90
20560;DHT22;10438;51.454;6.718;2023-05-14T00:54:15;12.90;99.90
20560;DHT22;10438;51.454;6.718;2023-05-14T00:56:42;12.80;99.90
20560;DHT22;10438;51.454;6.718;2023-05-14T00:59:08;12.80;99.90
20560;DHT22;10438;51.454;6.718;2023-05-14T01:01:34;12.80;99.90
20560;DHT22;10438;51.454;6.718;2023-05-14T01:04:00;12.80;99.90
20560;DHT22;10438;51.454;6.718;2023-05-14T01:07:08;12.70;99.90
20560;DHT22;10438;51.454;6.718;2023-05-14T01:09:50;12.70;99.90
20560;DHT22;10438;51.454;6.718;2023-05-14T01:12:32;12.70;99.90
20560;DHT22;10438;51.454;6.718;2023-05-14T01:15:21;12.60;99.90
20560;DHT22;10438;51.454;6.718;2023-05-14T01:17:52;12.60;99.90
20560;DHT22;10438;51.454;6.718;2023-05-14T01:20:18;12.50;99.90
20560;DHT22;10438;51.454;6.718;2023-05-14T01:22:44;12.40;99.90
20560;DHT22;10438;51.454;6.718;2023-05-14T01:25:09;12.40;99.90
20560;DHT22;10438;51.454;6.718;2023-05-14T01:28:00;12.40;99.90
20560;DHT22;10438;51.454;6.718;2023-05-14T01:30:36;12.30;99.90
20560;DHT22;10438;51.454;6.718;2023-05-14T01:33:09;12.30;99.90
20560;DHT22;10438;51.454;6.718;2023-05-14T01:35:36;12.30;99.90
20560;DHT22;10438;51.454;6.718;2023-05-14T01:38:05;12.30;99.90
20560;DHT22;10438;51.454;6.718;2023-05-14T01:40:31;12.30;99.90
20560;DHT22;10438;51.454;6.718;2023-05-14T01:42:58;12.20;99.90
20560;DHT22;10438;51.454;6.718;2023-05-14T01:45:24;12.30;99.90
20560;DHT22;10438;51.454;6.718;2023-05-14T01:47:50;12.30;99.90
20560;DHT22;10438;51.454;6.718;2023-05-14T01:50:17;12.30;99.90
20560;DHT22;10438;51.454;6.718;2023-05-14T01:52:42;12.20;99.90
20560;DHT22;10438;51.454;6.718;2023-05-14T01:55:08;12.20;99.90
20560;DHT22;10438;51.454;6.718;2023-05-14T01:57:34;12.20;99.90
20560;DHT22;10438;51.454;6.718;2023-05-14T01:59:59;12.10;99.90
20560;DHT22;10438;51.454;6.718;2023-05-14T02:02:25;12.10;99.90
20560;DHT22;10438;51.454;6.718;2023-05-14T02:04:51;12.10;99.90
20560;DHT22;10438;51.454;6.718;2023-05-14T02:07:16;12.00;99.90
20560;DHT22;10438;51.454;6.718;2023-05-14T02:09:42;11.90;99.90
20560;DHT22;10438;51.454;6.718;2023-05-14T02:12:08;11.90;99.90
20560;DHT22;10438;51.454;6.718;2023-05-14T02:14:33;11.80;99.90
20560;DHT22;10438;51.454;6.718;2023-05-14T02:16:59;11.80;99.90
20560;DHT22;10438;51.454;6.718;2023-05-14T02:19:25;11.80;99.90
20560;DHT22;10438;51.454;6.718;2023-05-14T02:21:50;11.70;99.90
20560;DHT22;10438;51.454;6.718;2023-05-14T02:24:16;11.70;99.90
20560;DHT22;10438;51.454;6.718;2023-05-14T02:26:41;11.70;99.90
20560;DHT22;10438;51.454;6.718;2023-05-14T02:29:07;11.70;99.90
20560;DHT22;10438;51.454;6.718;2023-05-14T02:31:33;11.60;99.90
20560;DHT22;10438;51.454;6.718;2023-05-14T02:34:00;11.60;99.90
20560;DHT22;10438;51.454;6.718;2023-05-14T02:36:25;11.60;99.90
20560;DHT22;10438;51.454;6.718;2023-05-14T02:38:51;11.50;99.90
20560;DHT22;10438;51.454;6.718;2023-05-14T02:41:17;11.50;99.90
20560;DHT22;10438;51.454;6.718;2023-05-14T02:43:42;11.50;99.90
20560;DHT22;10438;51.454;6.718;2023-05-14T02:46:08;11.50;99.90
20560;DHT22;10438;51.454;6.718;2023-05-14T02:48:33;11.40;99.90
20560;DHT22;10438;51.454;6.718;2023-05-14T02:50:59;11.40;99.90
20560;DHT22;10438;51.454;6.718;2023-05-14T02:53:25;11.40;99.90
20560;DHT22;10438;51.454;6.718;2023-05-14T02:55:50;11.40;99.90
20560;DHT22;10438;51.454;6.718;2023-05-14T02:58:16;11.40;99.90
20560;DHT22;10438;51.454;6.718;2023-05-14T03:00:41;11.40;99.90
20560;DHT22;10438;51.454;6.718;2023-05-14T03:03:07;11.40;99.90
20560;DHT22;10438;51.454;6.718;2023-05-14T03:05:32;11.40;99.90
20560;DHT22;10438;51.454;6.718;2023-05-14T03:07:58;11.40;99.90
20560;DHT22;10438;51.454;6.718;2023-05-14T03:10:23;11.40;99.90
20560;DHT22;10438;51.454;6.718;2023-05-14T03:12:49;11.40;99.90
20560;DHT22;10438;51.454;6.718;2023-05-14T03:15:14;11.40;99.90
20560;DHT22;10438;51.454;6.718;2023-05-14T03:17:40;11.40;99.90
20560;DHT22;10438;51.454;6.718;2023-05-14T03:20:06;11.50;99.90
20560;DHT22;10438;51.454;6.718;2023-05-14T03:22:31;11.50;99.90
20560;DHT22;10438;51.454;6.718;2023-05-14T03:24:57;11.40;99.90
20560;DHT22;10438;51.454;6.718;2023-05-14T03:27:22;11.50;99.90
20560;DHT22;10438;51.454;6.718;2023-05-14T03:29:48;11.50;99.90
20560;DHT22;10438;51.454;6.718;2023-05-14T03:32:14;11.40;99.90
20560;DHT22;10438;51.454;6.718;2023-05-14T03:34:39;11.50;99.90
20560;DHT22;10438;51.454;6.718;2023-05-14T03:37:05;11.50;99.90
20560;DHT22;10438;51.454;6.718;2023-05-14T03:39:30;11.50;99.90
20560;DHT22;10438;51.454;6.718;2023-05-14T03:41:56;11.50;99.90
20560;DHT22;10438;51.454;6.718;2023-05-14T03:44:23;11.50;99.90
20560;DHT22;10438;51.454;6.718;2023-05-14T03:46:49;11.40;99.90
20560;DHT22;10438;51.454;6.718;2023-05-14T03:49:14;11.40;99.90
20560;DHT22;10438;51.454;6.718;2023-05-14T03:51:40;11.40;99.90
20560;DHT22;10438;51.454;6.718;2023-05-14T03:54:06;11.40;99.90
20560;DHT22;10438;51.454;6.718;2023-05-14T03:56:31;11.40;99.90
20560;DHT22;10438;51.454;6.718;2023-05-14T03:58:57;11.40;99.90
20560;DHT22;10438;51.454;6.718;2023-05-14T04:01:22;11.30;99.90
20560;DHT22;10438;51.454;6.718;2023-05-14T04:03:48;11.30;99.90
20560;DHT22;10438;51.454;6.718;2023-05-14T04:06:13;11.30;99.90
20560;DHT22;10438;51.454;6.718;2023-05-14T04:08:39;11.30;99.90
20560;DHT22;10438;51.454;6.718;2023-05-14T04:11:04;11.30;99.90
20560;DHT22;10438;51.454;6.718;2023-05-14T04:13:30;11.30;99.90
20560;DHT22;10438;51.454;6.718;2023-05-14T04:15:55;11.30;99.90
20560;DHT22;10438;51.454;6.718;2023-05-14T04:18:21;11.30;99.90
20560;DHT22;10438;51.454;6.718;2023-05-14T04:20:47;11.30;99.90
20560;DHT22;10438;51.454;6.718;2023-05-14T04:23:12;11.30;99.90
20560;DHT22;10438;51.454;6.718;2023-05-14T04:25:37;11.20;99.90
20560;DHT22;10438;51.454;6.718;2023-05-14T04:28:03;11.20;99.90
20560;DHT22;10438;51.454;6.718;2023-05-14T04:30:29;11.30;99.90
20560;DHT22;10438;51.454;6.718;2023-05-14T04:32:54;11.20;99.90
20560;DHT22;10438;51.454;6.718;2023-05-14T04:35:20;11.30;99.90
20560;DHT22;10438;51.454;6.718;2023-05-14T04:37:46;11.30;99.90
20560;DHT22;10438;51.454;6.718;2023-05-14T04:40:11;11.30;99.90
20560;DHT22;10438;51.454;6.718;2023-05-14T04:42:37;11.30;99.90
20560;DHT22;10438;51.454;6.718;2023-05-14T04:45:04;11.30;99.90
20560;DHT22;10438;51.454;6.718;2023-05-14T04:47:31;11.30;99.90
20560;DHT22;10438;51.454;6.718;2023-05-14T04:49:56;11.30;99.90
20560;DHT22;10438;51.454;6.718;2023-05-14T04:52:22;11.30;99.90
20560;DHT22;10438;51.454;6.718;2023-05-14T04:54:48;11.30;99.90
20560;DHT22;10438;51.454;6.718;2023-05-14T04:57:14;11.40;99.90
20560;DHT22;10438;51.454;6.718;2023-05-14T04:59:39;11.30;99.90
20560;DHT22;10438;51.454;6.718;2023-05-14T05:02:05;11.40;99.90
20560;DHT22;10438;51.454;6.718;2023-05-14T05:04:30;11.40;99.90
20560;DHT22;10438;51.454;6.718;2023-05-14T05:06:56;11.40;99.90
20560;DHT22;10438;51.454;6.718;2023-05-14T05:09:21;11.40;99.90
20560;DHT22;10438;51.454;6.718;2023-05-14T05:11:47;11.40;99.90
20560;DHT22;10438;51.454;6.718;2023-05-14T05:14:12;11.40;99.90
20560;DHT22;10438;51.454;6.718;2023-05-14T05:16:38;11.40;99.90
20560;DHT22;10438;51.454;6.718;2023-05-14T05:19:04;11.40;99.90
20560;DHT22;10438;51.454;6.718;2023-05-14T05:21:29;11.40;99.90
20560;DHT22;10438;51.454;6.718;2023-05-14T05:23:55;11.50;99.90
20560;DHT22;10438;51.454;6.718;2023-05-14T05:26:20;11.50;99.90
20560;DHT22;10438;51.454;6.718;2023-05-14T05:28:46;11.60;99.90
20560;DHT22;10438;51.454;6.718;2023-05-14T05:31:12;11.60;99.90
20560;DHT22;10438;51.454;6.718;2023-05-14T05:33:38;11.70;99.90
20560;DHT22;10438;51.454;6.718;2023-05-14T05:36:04;11.70;99.90
20560;DHT22;10438;51.454;6.718;2023-05-14T05:38:29;11.70;99.90
20560;DHT22;10438;51.454;6.718;2023-05-14T05:40:55;11.70;99.90
20560;DHT22;10438;51.454;6.718;2023-05-14T05:43:21;11.70;99.90
20560;DHT22;10438;51.454;6.718;2023-05-14T05:45:46;11.70;99.90
20560;DHT22;10438;51.454;6.718;2023-05-14T05:48:12;11.80;99.90
20560;DHT22;10438;51.454;6.718;2023-05-14T05:50:37;11.80;99.90
20560;DHT22;10438;51.454;6.718;2023-05-14T05:53:03;11.80;99.90
20560;DHT22;10438;51.454;6.718;2023-05-14T05:55:28;11.80;99.90
20560;DHT22;10438;51.454;6.718;2023-05-14T05:57:54;11.90;99.90
20560;DHT22;10438;51.454;6.718;2023-05-14T06:00:20;11.90;99.90
20560;DHT22;10438;51.454;6.718;2023-05-14T06:02:46;12.00;99.90
20560;DHT22;10438;51.454;6.718;2023-05-14T06:05:12;12.10;99.90
20560;DHT22;10438;51.454;6.718;2023-05-14T06:07:38;12.20;99.90
20560;DHT22;10438;51.454;6.718;2023-05-14T06:10:03;12.20;99.90
20560;DHT22;10438;51.454;6.718;2023-05-14T06:12:29;12.40;99.90
20560;DHT22;10438;51.454;6.718;2023-05-14T06:14:55;12.50;99.90
20560;DHT22;10438;51.454;6.718;2023-05-14T06:17:24;12.60;99.90
20560;DHT22;10438;51.454;6.718;2023-05-14T06:19:50;12.70;99.90
20560;DHT22;10438;51.454;6.718;2023-05-14T06:22:16;12.90;99.90
20560;DHT22;10438;51.454;6.718;2023-05-14T06:24:42;13.00;99.90
20560;DHT22;10438;51.454;6.718;2023-05-14T06:27:08;13.10;99.90
20560;DHT22;10438;51.454;6.718;2023-05-14T06:29:34;13.20;99.90
20560;DHT22;10438;51.454;6.718;2023-05-14T06:32:01;13.20;99.90
20560;DHT22;10438;51.454;6.718;2023-05-14T06:34:27;13.40;99.90
20560;DHT22;10438;51.454;6.718;2023-05-14T06:36:52;13.50;99.90
20560;DHT22;10438;51.454;6.718;2023-05-14T06:39:18;13.50;99.90
20560;DHT22;10438;51.454;6.718;2023-05-14T06:41:43;13.60;99.90
20560;DHT22;10438;51.454;6.718;2023-05-14T06:44:09;13.70;99.90
20560;DHT22;10438;51.454;6.718;2023-05-14T06:46:35;13.80;99.90
20560;DHT22;10438;51.454;6.718;2023-05-14T06:49:01;13.90;99.90
20560;DHT22;10438;51.454;6.718;2023-05-14T06:51:26;14.00;99.90
20560;DHT22;10438;51.454;6.718;2023-05-14T06:53:52;14.20;99.90
20560;DHT22;10438;51.454;6.718;2023-05-14T06:56:18;14.50;99.90
20560;DHT22;10438;51.454;6.718;2023-05-14T06:58:44;14.70;99.90
20560;DHT22;10438;51.454;6.718;2023-05-14T07:01:09;14.90;99.90
20560;DHT22;10438;51.454;6.718;2023-05-14T07:03:35;15.10;99.90
20560;DHT22;10438;51.454;6.718;2023-05-14T07:06:01;15.20;99.90
20560;DHT22;10438;51.454;6.718;2023-05-14T07:08:26;15.40;99.90
20560;DHT22;10438;51.454;6.718;2023-05-14T07:10:52;15.60;99.90
20560;DHT22;10438;51.454;6.718;2023-05-14T07:13:17;15.70;99.90
20560;DHT22;10438;51.454;6.718;2023-05-14T07:15:43;15.80;99.90
20560;DHT22;10438;51.454;6.718;2023-05-14T07:18:08;15.80;99.90
20560;DHT22;10438;51.454;6.718;2023-05-14T07:20:34;15.90;99.90
20560;DHT22;10438;51.454;6.718;2023-05-14T07:22:59;15.90;99.90
20560;DHT22;10438;51.454;6.718;2023-05-14T07:25:25;16.00;99.90
20560;DHT22;10438;51.454;6.718;2023-05-14T07:27:50;16.10;99.90
20560;DHT22;10438;51.454;6.718;2023-05-14T07:30:16;16.20;99.90
20560;DHT22;10438;51.454;6.718;2023-05-14T07:32:41;16.30;99.90
20560;DHT22;10438;51.454;6.718;2023-05-14T07:35:07;16.40;99.90
20560;DHT22;10438;51.454;6.718;2023-05-14T07:37:33;16.50;99.90
20560;DHT22;10438;51.454;6.718;2023-05-14T07:39:58;16.60;99.90
20560;DHT22;10438;51.454;6.718;2023-05-14T07:42:24;16.50;99.90
20560;DHT22;10438;51.454;6.718;2023-05-14T07:44:51;16.50;99.90
20560;DHT22;10438;51.454;6.718;2023-05-14T07:47:16;16.50;99.90
20560;DHT22;10438;51.454;6.718;2023-05-14T07:49:42;16.50;99.90
20560;DHT22;10438;51.454;6.718;2023-05-14T07:52:07;16.60;99.90
20560;DHT22;10438;51.454;6.718;2023-05-14T07:54:33;16.80;99.90
20560;DHT22;10438;51.454;6.718;2023-05-14T07:56:59;17.00;99.90
20560;DHT22;10438;51.454;6.718;2023-05-14T07:59:24;17.20;99.90
20560;DHT22;10438;51.454;6.718;2023-05-14T08:01:50;17.30;99.90
20560;DHT22;10438;51.454;6.718;2023-05-14T08:04:16;17.30;99.90
20560;DHT22;10438;51.454;6.718;2023-05-14T08:06:42;17.40;99.90
20560;DHT22;10438;51.454;6.718;2023-05-14T08:09:07;17.50;99.90
20560;DHT22;10438;51.454;6.718;2023-05-14T08:11:33;17.60;99.90
20560;DHT22;10438;51.454;6.718;2023-05-14T08:13:59;17.70;99.90
20560;DHT22;10438;51.454;6.718;2023-05-14T08:16:25;17.90;99.90
20560;DHT22;10438;51.454;6.718;2023-05-14T08:18:52;17.90;99.90
20560;DHT22;10438;51.454;6.718;2023-05-14T08:21:18;18.10;99.90
20560;DHT22;10438;51.454;6.718;2023-05-14T08:23:43;18.40;99.90
20560;DHT22;10438;51.454;6.718;2023-05-14T08:26:09;18.70;99.90
20560;DHT22;10438;51.454;6.718;2023-05-14T08:28:34;19.00;99.90
20560;DHT22;10438;51.454;6.718;2023-05-14T08:31:00;19.00;99.90
20560;DHT22;10438;51.454;6.718;2023-05-14T08:33:25;19.10;99.90
20560;DHT22;10438;51.454;6.718;2023-05-14T08:35:54;19.00;99.90
20560;DHT22;10438;51.454;6.718;2023-05-14T08:38:20;18.80;99.90
20560;DHT22;10438;51.454;6.718;2023-05-14T08:40:56;19.10;99.90
20560;DHT22;10438;51.454;6.718;2023-05-14T08:43:25;19.40;99.90
20560;DHT22;10438;51.454;6.718;2023-05-14T08:45:59;19.50;99.90
20560;DHT22;10438;51.454;6.718;2023-05-14T08:48:31;19.80;99.90
20560;DHT22;10438;51.454;6.718;2023-05-14T08:50:58;19.80;99.90
20560;DHT22;10438;51.454;6.718;2023-05-14T08:53:24;20.00;99.90
20560;DHT22;10438;51.454;6.718;2023-05-14T08:55:50;20.30;99.90
20560;DHT22;10438;51.454;6.718;2023-05-14T08:58:16;20.40;99.90
20560;DHT22;10438;51.454;6.718;2023-05-14T09:00:41;20.30;91.10
20560;DHT22;10438;51.454;6.718;2023-05-14T09:03:07;20.50;95.50
20560;DHT22;10438;51.454;6.718;2023-05-14T09:05:35;20.70;99.90
20560;DHT22;10438;51.454;6.718;2023-05-14T09:08:00;20.90;97.60
20560;DHT22;10438;51.454;6.718;2023-05-14T09:10:26;21.00;99.90
20560;DHT22;10438;51.454;6.718;2023-05-14T09:12:51;21.20;99.80
20560;DHT22;10438;51.454;6.718;2023-05-14T09:15:17;21.10;85.80
20560;DHT22;10438;51.454;6.718;2023-05-14T09:17:44;21.20;80.20
20560;DHT22;10438;51.454;6.718;2023-05-14T09:20:12;21.30;93.10
20560;DHT22;10438;51.454;6.718;2023-05-14T09:22:39;21.30;88.30
20560;DHT22;10438;51.454;6.718;2023-05-14T09:25:09;21.30;86.90
20560;DHT22;10438;51.454;6.718;2023-05-14T09:27:36;21.40;59.60
20560;DHT22;10438;51.454;6.718;2023-05-14T09:32:38;21.60;87.50
20560;DHT22;10438;51.454;6.718;2023-05-14T09:35:18;21.60;79.50
20560;DHT22;10438;51.454;6.718;2023-05-14T09:37:50;21.80;80.50
20560;DHT22;10438;51.454;6.718;2023-05-14T09:40:17;22.00;84.50
20560;DHT22;10438;51.454;6.718;2023-05-14T09:42:43;22.10;86.70
20560;DHT22;10438;51.454;6.718;2023-05-14T09:45:09;22.20;90.20
20560;DHT22;10438;51.454;6.718;2023-05-14T09:47:36;22.40;79.50
20560;DHT22;10438;51.454;6.718;2023-05-14T09:50:03;22.50;75.50
20560;DHT22;10438;51.454;6.718;2023-05-14T09:52:29;22.60;41.10
20560;DHT22;10438;51.454;6.718;2023-05-14T09:54:54;22.70;42.50
20560;DHT22;10438;51.454;6.718;2023-05-14T09:57:20;22.80;57.40
20560;DHT22;10438;51.454;6.718;2023-05-14T09:59:46;23.00;60.10
20560;DHT22;10438;51.454;6.718;2023-05-14T10:02:36;23.00;51.40
20560;DHT22;10438;51.454;6.718;2023-05-14T10:05:04;23.20;43.00
20560;DHT22;10438;51.454;6.718;2023-05-14T10:07:47;23.30;58.50
20560;DHT22;10438;51.454;6.718;2023-05-14T10:10:15;23.40;57.30
20560;DHT22;10438;51.454;6.718;2023-05-14T10:12:45;23.10;47.10
20560;DHT22;10438;51.454;6.718;2023-05-14T10:15:18;23.10;41.80
20560;DHT22;10438;51.454;6.718;2023-05-14T10:17:55;23.40;50.20
20560;DHT22;10438;51.454;6.718;2023-05-14T10:20:21;23.70;46.60
20560;DHT22;10438;51.454;6.718;2023-05-14T10:22:48;24.00;33.40
20560;DHT22;10438;51.454;6.718;2023-05-14T10:25:13;24.10;31.10
20560;DHT22;10438;51.454;6.718;2023-05-14T10:27:40;23.80;15.00
20560;DHT22;10438;51.454;6.718;2023-05-14T10:30:10;23.50;23.20
20560;DHT22;10438;51.454;6.718;2023-05-14T10:32:41;23.60;15.10
20560;DHT22;10438;51.454;6.718;2023-05-14T10:35:17;23.40;12.90
20560;DHT22;10438;51.454;6.718;2023-05-14T10:37:44;23.10;7.10
20560;DHT22;10438;51.454;6.718;2023-05-14T10:40:12;22.60;5.80
20560;DHT22;10438;51.454;6.718;2023-05-14T10:42:38;22.80;1.60
20560;DHT22;10438;51.454;6.718;2023-05-14T10:45:09;23.30;16.80
20560;DHT22;10438;51.454;6.718;2023-05-14T10:47:39;23.70;7.50
20560;DHT22;10438;51.454;6.718;2023-05-14T10:50:08;23.20;3.40
20560;DHT22;10438;51.454;6.718;2023-05-14T10:52:35;22.80;1.00
20560;DHT22;10438;51.454;6.718;2023-05-14T10:55:03;22.50;1.00
20560;DHT22;10438;51.454;6.718;2023-05-14T10:57:34;22.40;5.10
20560;DHT22;10438;51.454;6.718;2023-05-14T11:00:00;22.40;2.50
20560;DHT22;10438;51.454;6.718;2023-05-14T11:02:28;22.30;6.50
20560;DHT22;10438;51.454;6.718;2023-05-14T11:07:32;22.00;9.10
20560;DHT22;10438;51.454;6.718;2023-05-14T11:12:35;21.90;2.10
20560;DHT22;10438;51.454;6.718;2023-05-14T11:15:07;22.10;10.60
20560;DHT22;10438;51.454;6.718;2023-05-14T11:17:34;22.70;4.00
20560;DHT22;10438;51.454;6.718;2023-05-14T11:20:00;22.80;1.00
20560;DHT22;10438;51.454;6.718;2023-05-14T11:22:26;22.30;1.00
20560;DHT22;10438;51.454;6.718;2023-05-14T11:24:52;22.00;1.00
20560;DHT22;10438;51.454;6.718;2023-05-14T11:27:19;21.90;1.00
20560;DHT22;10438;51.454;6.718;2023-05-14T11:29:46;21.70;1.00
20560;DHT22;10438;51.454;6.718;2023-05-14T11:32:12;21.70;1.00
20560;DHT22;10438;51.454;6.718;2023-05-14T11:34:39;21.60;1.00
20560;DHT22;10438;51.454;6.718;2023-05-14T11:37:06;21.90;1.00
20560;DHT22;10438;51.454;6.718;2023-05-14T11:39:32;22.60;1.00
20560;DHT22;10438;51.454;6.718;2023-05-14T11:41:59;22.90;1.00
20560;DHT22;10438;51.454;6.718;2023-05-14T11:44:26;23.30;1.00
20560;DHT22;10438;51.454;6.718;2023-05-14T11:46:55;23.90;1.00
20560;DHT22;10438;51.454;6.718;2023-05-14T11:49:22;24.30;1.00
20560;DHT22;10438;51.454;6.718;2023-05-14T11:51:48;24.30;1.00
20560;DHT22;10438;51.454;6.718;2023-05-14T11:54:14;24.20;1.00
20560;DHT22;10438;51.454;6.718;2023-05-14T11:56:39;24.00;1.00
20560;DHT22;10438;51.454;6.718;2023-05-14T11:59:05;24.70;1.00
20560;DHT22;10438;51.454;6.718;2023-05-14T12:01:35;24.50;1.00
20560;DHT22;10438;51.454;6.718;2023-05-14T12:04:03;24.10;1.00
20560;DHT22;10438;51.454;6.718;2023-05-14T12:06:31;24.10;1.00
20560;DHT22;10438;51.454;6.718;2023-05-14T12:08:57;24.40;1.00
20560;DHT22;10438;51.454;6.718;2023-05-14T12:11:22;24.60;1.00
20560;DHT22;10438;51.454;6.718;2023-05-14T12:13:48;24.70;1.00
20560;DHT22;10438;51.454;6.718;2023-05-14T12:16:14;24.50;1.00
20560;DHT22;10438;51.454;6.718;2023-05-14T12:18:40;24.20;1.00
20560;DHT22;10438;51.454;6.718;2023-05-14T12:21:06;24.00;1.00
20560;DHT22;10438;51.454;6.718;2023-05-14T12:23:32;24.20;1.00
20560;DHT22;10438;51.454;6.718;2023-05-14T12:26:06;24.30;1.00
20560;DHT22;10438;51.454;6.718;2023-05-14T12:28:32;24.40;1.00
20560;DHT22;10438;51.454;6.718;2023-05-14T12:30:58;24.50;1.00
20560;DHT22;10438;51.454;6.718;2023-05-14T12:33:25;25.00;1.00
20560;DHT22;10438;51.454;6.718;2023-05-14T12:35:54;25.10;1.00
20560;DHT22;10438;51.454;6.718;2023-05-14T12:38:26;25.10;1.00
20560;DHT22;10438;51.454;6.718;2023-05-14T12:40:51;24.80;1.00
20560;DHT22;10438;51.454;6.718;2023-05-14T12:43:17;24.60;1.00
20560;DHT22;10438;51.454;6.718;2023-05-14T12:45:42;24.20;1.00
20560;DHT22;10438;51.454;6.718;2023-05-14T12:48:08;24.30;1.00
20560;DHT22;10438;51.454;6.718;2023-05-14T12:50:34;24.60;1.00
20560;DHT22;10438;51.454;6.718;2023-05-14T12:52:59;25.30;1.00
20560;DHT22;10438;51.454;6.718;2023-05-14T12:55:25;25.40;1.00
20560;DHT22;10438;51.454;6.718;2023-05-14T12:57:50;25.10;1.00
20560;DHT22;10438;51.454;6.718;2023-05-14T13:00:16;25.10;1.00
20560;DHT22;10438;51.454;6.718;2023-05-14T13:02:42;24.90;1.00
20560;DHT22;10438;51.454;6.718;2023-05-14T13:05:08;25.30;1.00
20560;DHT22;10438;51.454;6.718;2023-05-14T13:07:34;25.80;1.00
20560;DHT22;10438;51.454;6.718;2023-05-14T13:10:00;26.40;1.00
20560;DHT22;10438;51.454;6.718;2023-05-14T13:12:25;26.00;1.00
20560;DHT22;10438;51.454;6.718;2023-05-14T13:14:51;25.50;1.00
20560;DHT22;10438;51.454;6.718;2023-05-14T13:17:16;25.10;1.00
20560;DHT22;10438;51.454;6.718;2023-05-14T13:19:42;24.80;1.00
20560;DHT22;10438;51.454;6.718;2023-05-14T13:22:07;24.40;1.00
20560;DHT22;10438;51.454;6.718;2023-05-14T13:24:33;23.80;1.00
20560;DHT22;10438;51.454;6.718;2023-05-14T13:26:59;23.50;1.00
20560;DHT22;10438;51.454;6.718;2023-05-14T13:29:25;23.40;1.00
20560;DHT22;10438;51.454;6.718;2023-05-14T13:31:50;23.20;1.00
20560;DHT22;10438;51.454;6.718;2023-05-14T13:34:17;23.20;1.00
20560;DHT22;10438;51.454;6.718;2023-05-14T13:36:43;23.90;1.00
20560;DHT22;10438;51.454;6.718;2023-05-14T13:39:09;24.40;1.00
20560;DHT22;10438;51.454;6.718;2023-05-14T13:41:38;24.00;1.00
20560;DHT22;10438;51.454;6.718;2023-05-14T13:44:03;24.00;1.00
20560;DHT22;10438;51.454;6.718;2023-05-14T13:46:29;23.50;1.00
20560;DHT22;10438;51.454;6.718;2023-05-14T13:48:55;23.20;1.00
20560;DHT22;10438;51.454;6.718;2023-05-14T13:51:21;23.30;1.00
20560;DHT22;10438;51.454;6.718;2023-05-14T13:53:47;23.30;1.00
20560;DHT22;10438;51.454;6.718;2023-05-14T13:56:13;23.40;1.00
20560;DHT22;10438;51.454;6.718;2023-05-14T13:58:38;23.50;1.00
20560;DHT22;10438;51.454;6.718;2023-05-14T14:01:04;23.60;1.00
20560;DHT22;10438;51.454;6.718;2023-05-14T14:03:29;23.80;1.00
20560;DHT22;10438;51.454;6.718;2023-05-14T14:05:55;23.80;1.00
20560;DHT22;10438;51.454;6.718;2023-05-14T14:08:20;23.70;1.00
20560;DHT22;10438;51.454;6.718;2023-05-14T14:10:46;23.50;1.00
20560;DHT22;10438;51.454;6.718;2023-05-14T14:13:12;23.50;1.00
20560;DHT22;10438;51.454;6.718;2023-05-14T14:15:37;23.50;1.00
20560;DHT22;10438;51.454;6.718;2023-05-14T14:18:03;23.50;1.00
20560;DHT22;10438;51.454;6.718;2023-05-14T14:20:28;23.20;1.00
20560;DHT22;10438;51.454;6.718;2023-05-14T14:22:55;23.10;1.00
20560;DHT22;10438;51.454;6.718;2023-05-14T14:25:21;22.90;1.00
20560;DHT22;10438;51.454;6.718;2023-05-14T14:27:46;22.70;1.00
20560;DHT22;10438;51.454;6.718;2023-05-14T14:30:13;22.70;1.00
20560;DHT22;10438;51.454;6.718;2023-05-14T14:32:45;22.60;1.00
20560;DHT22;10438;51.454;6.718;2023-05-14T14:35:12;22.60;1.00
20560;DHT22;10438;51.454;6.718;2023-05-14T14:37:38;22.50;1.00
20560;DHT22;10438;51.454;6.718;2023-05-14T14:40:04;22.60;1.00
20560;DHT22;10438;51.454;6.718;2023-05-14T14:42:32;22.90;1.00
20560;DHT22;10438;51.454;6.718;2023-05-14T14:44:58;23.40;1.00
20560;DHT22;10438;51.454;6.718;2023-05-14T14:47:23;23.90;1.00
20560;DHT22;10438;51.454;6.718;2023-05-14T14:49:49;24.50;1.00
20560;DHT22;10438;51.454;6.718;2023-05-14T14:52:15;24.70;1.00
20560;DHT22;10438;51.454;6.718;2023-05-14T14:54:40;24.70;1.00
20560;DHT22;10438;51.454;6.718;2023-05-14T14:57:06;24.60;1.00
20560;DHT22;10438;51.454;6.718;2023-05-14T14:59:31;24.60;1.00
20560;DHT22;10438;51.454;6.718;2023-05-14T15:01:57;24.60;1.00
20560;DHT22;10438;51.454;6.718;2023-05-14T15:04:22;24.50;1.00
20560;DHT22;10438;51.454;6.718;2023-05-14T15:06:48;24.40;1.00
20560;DHT22;10438;51.454;6.718;2023-05-14T15:09:13;24.10;1.00
20560;DHT22;10438;51.454;6.718;2023-05-14T15:11:39;23.80;1.00
20560;DHT22;10438;51.454;6.718;2023-05-14T15:14:05;23.50;1.00
20560;DHT22;10438;51.454;6.718;2023-05-14T15:16:30;23.20;1.00
20560;DHT22;10438;51.454;6.718;2023-05-14T15:18:56;22.90;1.00
20560;DHT22;10438;51.454;6.718;2023-05-14T15:21:21;22.80;1.00
20560;DHT22;10438;51.454;6.718;2023-05-14T15:23:47;22.80;1.00
20560;DHT22;10438;51.454;6.718;2023-05-14T15:26:12;22.80;1.00
20560;DHT22;10438;51.454;6.718;2023-05-14T15:28:38;22.80;1.00
20560;DHT22;10438;51.454;6.718;2023-05-14T15:31:04;22.80;1.00
20560;DHT22;10438;51.454;6.718;2023-05-14T15:33:30;22.80;1.00
20560;DHT22;10438;51.454;6.718;2023-05-14T15:35:55;22.80;1.00
20560;DHT22;10438;51.454;6.718;2023-05-14T15:38:21;22.70;1.00